sensor_id;sensor_type;location;lat;lon;timestamp;pressure;altitude;pressure_sealevel;temperature;humidity
65897;BME280;52677;50.898;10.854;2023-12-20T00:00:38;98127.72;;;3.34;100.00
65897;BME280;52677;50.898;10.854;2023-12-20T00:02:38;98121.09;;;3.35;100.00
65897;BME280;52677;50.898;10.854;2023-12-20T00:04:38;98130.44;;;3.34;100.00
65897;BME280;52677;50.898;10.854;2023-12-20T00:06:39;98117.56;;;3.34;100.00
65897;BME280;52677;50.898;10.854;2023-12-20T00:08:39;98117.13;;;3.32;100.00
65897;BME280;52677;50.898;10.854;2023-12-20T00:10:39;98121.31;;;3.30;100.00
65897;BME280;52677;50.898;10.854;2023-12-20T00:12:40;98107.31;;;3.31;100.00
65897;BME280;52677;50.898;10.854;2023-12-20T00:14:41;98110.72;;;3.28;100.00
65897;BME280;52677;50.898;10.854;2023-12-20T00:16:41;98099.91;;;3.32;100.00
65897;BME280;52677;50.898;10.854;2023-12-20T00:18:41;98106.63;;;3.34;100.00
65897;BME280;52677;50.898;10.854;2023-12-20T00:20:42;98104.47;;;3.40;100.00
65897;BME280;52677;50.898;10.854;2023-12-20T00:22:42;98104.69;;;3.35;100.00
65897;BME280;52677;50.898;10.854;2023-12-20T00:24:42;98101.63;;;3.36;100.00
65897;BME280;52677;50.898;10.854;2023-12-20T00:26:42;98103.91;;;3.34;100.00
65897;BME280;52677;50.898;10.854;2023-12-20T00:28:43;98107.78;;;3.33;100.00
65897;BME280;52677;50.898;10.854;2023-12-20T00:30:43;98106.19;;;3.32;100.00
65897;BME280;52677;50.898;10.854;2023-12-20T00:32:44;98104.59;;;3.31;100.00
65897;BME280;52677;50.898;10.854;2023-12-20T00:34:46;98109.72;;;3.33;100.00
65897;BME280;52677;50.898;10.854;2023-12-20T00:36:46;98113.09;;;3.30;100.00
65897;BME280;52677;50.898;10.854;2023-12-20T00:38:47;98114.38;;;3.32;100.00
65897;BME280;52677;50.898;10.854;2023-12-20T00:40:48;98118.81;;;3.37;100.00
65897;BME280;52677;50.898;10.854;2023-12-20T00:42:49;98124.06;;;3.42;100.00
65897;BME280;52677;50.898;10.854;2023-12-20T00:44:50;98117.00;;;3.41;100.00
65897;BME280;52677;50.898;10.854;2023-12-20T00:46:50;98120.09;;;3.40;100.00
65897;BME280;52677;50.898;10.854;2023-12-20T00:48:51;98114.13;;;3.37;100.00
65897;BME280;52677;50.898;10.854;2023-12-20T00:50:51;98107.22;;;3.40;100.00
65897;BME280;52677;50.898;10.854;2023-12-20T00:52:52;98100.72;;;3.32;100.00
65897;BME280;52677;50.898;10.854;2023-12-20T00:54:52;98097.03;;;3.28;100.00
65897;BME280;52677;50.898;10.854;2023-12-20T00:56:52;98104.09;;;3.29;100.00
65897;BME280;52677;50.898;10.854;2023-12-20T00:58:53;98097.72;;;3.25;100.00
65897;BME280;52677;50.898;10.854;2023-12-20T01:00:53;98095.91;;;3.29;100.00
65897;BME280;52677;50.898;10.854;2023-12-20T01:02:53;98092.03;;;3.30;100.00
65897;BME280;52677;50.898;10.854;2023-12-20T01:04:54;98099.91;;;3.32;100.00
65897;BME280;52677;50.898;10.854;2023-12-20T01:06:54;98097.72;;;3.25;100.00
65897;BME280;52677;50.898;10.854;2023-12-20T01:08:54;98088.72;;;3.37;100.00
65897;BME280;52677;50.898;10.854;2023-12-20T01:10:54;98101.63;;;3.36;100.00
65897;BME280;52677;50.898;10.854;2023-12-20T01:12:55;98095.34;;;3.36;100.00
65897;BME280;52677;50.898;10.854;2023-12-20T01:14:55;98092.03;;;3.30;100.00
65897;BME280;52677;50.898;10.854;2023-12-20T01:16:55;98085.44;;;3.31;100.00
65897;BME280;52677;50.898;10.854;2023-12-20T01:18:56;98089.19;;;3.27;100.00
65897;BME280;52677;50.898;10.854;2023-12-20T01:20:56;98094.31;;;3.28;100.00
65897;BME280;52677;50.898;10.854;2023-12-20T01:23:01;98089.97;;;3.27;100.00
65897;BME280;52677;50.898;10.854;2023-12-20T01:25:01;98084.41;;;3.24;100.00
65897;BME280;52677;50.898;10.854;2023-12-20T01:27:02;98087.13;;;3.36;100.00
65897;BME280;52677;50.898;10.854;2023-12-20T01:29:03;98082.72;;;3.31;100.00
65897;BME280;52677;50.898;10.854;2023-12-20T01:31:03;98085.66;;;3.26;100.00
65897;BME280;52677;50.898;10.854;2023-12-20T01:33:04;98077.00;;;3.24;100.00
65897;BME280;52677;50.898;10.854;2023-12-20T01:35:04;98075.50;;;3.27;100.00
65897;BME280;52677;50.898;10.854;2023-12-20T01:37:05;98077.00;;;3.24;100.00
65897;BME280;52677;50.898;10.854;2023-12-20T01:39:05;98075.72;;;3.22;100.00
65897;BME280;52677;50.898;10.854;2023-12-20T01:41:05;98069.81;;;3.20;100.00
65897;BME280;52677;50.898;10.854;2023-12-20T01:43:08;98078.25;;;3.15;100.00
65897;BME280;52677;50.898;10.854;2023-12-20T01:45:09;98071.94;;;3.14;100.00
65897;BME280;52677;50.898;10.854;2023-12-20T01:47:10;98076.75;;;3.17;100.00
65897;BME280;52677;50.898;10.854;2023-12-20T01:49:10;98068.75;;;3.12;100.00
65897;BME280;52677;50.898;10.854;2023-12-20T01:51:11;98073.88;;;3.14;100.00
65897;BME280;52677;50.898;10.854;2023-12-20T01:53:12;98073.56;;;3.15;100.00
65897;BME280;52677;50.898;10.854;2023-12-20T01:55:13;98076.97;;;3.12;100.00
65897;BME280;52677;50.898;10.854;2023-12-20T01:57:15;98070.69;;;3.12;100.00
65897;BME280;52677;50.898;10.854;2023-12-20T01:59:17;98070.69;;;3.12;100.00
65897;BME280;52677;50.898;10.854;2023-12-20T02:01:18;98079.47;;;3.17;100.00
65897;BME280;52677;50.898;10.854;2023-12-20T02:03:18;98071.16;;;3.14;100.00
65897;BME280;52677;50.898;10.854;2023-12-20T02:05:19;98075.03;;;3.13;100.00
65897;BME280;52677;50.898;10.854;2023-12-20T02:07:21;98075.38;;;3.11;100.00
65897;BME280;52677;50.898;10.854;2023-12-20T02:09:22;98071.38;;;3.08;100.00
65897;BME280;52677;50.898;10.854;2023-12-20T02:11:23;98059.75;;;3.12;100.00
65897;BME280;52677;50.898;10.854;2023-12-20T02:13:23;98070.34;;;3.13;100.00
65897;BME280;52677;50.898;10.854;2023-12-20T02:15:23;98061.00;;;3.14;100.00
65897;BME280;52677;50.898;10.854;2023-12-20T02:17:25;98059.16;;;3.06;100.00
65897;BME280;52677;50.898;10.854;2023-12-20T02:19:26;98058.84;;;3.07;100.00
65897;BME280;52677;50.898;10.854;2023-12-20T02:21:31;98060.44;;;3.08;100.00
65897;BME280;52677;50.898;10.854;2023-12-20T02:23:32;98046.88;;;3.12;100.00
65897;BME280;52677;50.898;10.854;2023-12-20T02:25:33;98049.97;;;3.10;100.00
65897;BME280;52677;50.898;10.854;2023-12-20T02:27:34;98045.19;;;3.07;100.00
65897;BME280;52677;50.898;10.854;2023-12-20T02:29:35;98052.13;;;3.05;100.00
65897;BME280;52677;50.898;10.854;2023-12-20T02:31:36;98042.78;;;3.06;100.00
65897;BME280;52677;50.898;10.854;2023-12-20T02:33:36;98037.00;;;3.07;100.00
65897;BME280;52677;50.898;10.854;2023-12-20T02:35:36;98038.78;;;3.03;100.00
65897;BME280;52677;50.898;10.854;2023-12-20T02:37:37;98034.91;;;3.04;100.00
65897;BME280;52677;50.898;10.854;2023-12-20T02:39:37;98027.41;;;3.14;100.00
65897;BME280;52677;50.898;10.854;2023-12-20T02:41:37;98019.91;;;3.10;100.00
65897;BME280;52677;50.898;10.854;2023-12-20T02:43:37;98022.03;;;3.05;100.00
65897;BME280;52677;50.898;10.854;2023-12-20T02:45:38;98025.25;;;3.07;100.00
65897;BME280;52677;50.898;10.854;2023-12-20T02:47:38;98027.50;;;3.05;100.00
65897;BME280;52677;50.898;10.854;2023-12-20T02:49:38;98025.91;;;3.04;100.00
65897;BME280;52677;50.898;10.854;2023-12-20T02:51:39;98022.03;;;3.05;100.00
65897;BME280;52677;50.898;10.854;2023-12-20T02:53:39;98024.00;;;3.04;100.00
65897;BME280;52677;50.898;10.854;2023-12-20T02:55:39;98014.88;;;3.13;100.00
65897;BME280;52677;50.898;10.854;2023-12-20T02:57:40;98011.25;;;3.08;100.00
65897;BME280;52677;50.898;10.854;2023-12-20T02:59:43;98003.84;;;3.09;100.00
65897;BME280;52677;50.898;10.854;2023-12-20T03:01:44;98007.81;;;3.12;100.00
65897;BME280;52677;50.898;10.854;2023-12-20T03:03:45;98020.25;;;3.09;100.00
65897;BME280;52677;50.898;10.854;2023-12-20T03:05:45;98021.94;;;3.14;100.00
65897;BME280;52677;50.898;10.854;2023-12-20T03:07:46;98021.03;;;3.09;100.00
65897;BME280;52677;50.898;10.854;2023-12-20T03:09:46;98018.41;;;3.13;100.00
65897;BME280;52677;50.898;10.854;2023-12-20T03:11:47;98007.38;;;3.09;100.00
65897;BME280;52677;50.898;10.854;2023-12-20T03:13:47;98002.00;;;3.13;100.00
65897;BME280;52677;50.898;10.854;2023-12-20T03:15:47;98010.09;;;3.09;100.00
65897;BME280;52677;50.898;10.854;2023-12-20T03:17:48;98008.75;;;3.16;100.00
65897;BME280;52677;50.898;10.854;2023-12-20T03:19:48;98008.28;;;3.14;100.00
65897;BME280;52677;50.898;10.854;2023-12-20T03:21:48;98014.31;;;3.19;100.00
65897;BME280;52677;50.898;10.854;2023-12-20T03:23:49;98022.75;;;3.14;100.00
65897;BME280;52677;50.898;10.854;2023-12-20T03:25:49;98027.41;;;3.14;100.00
65897;BME280;52677;50.898;10.854;2023-12-20T03:27:49;98022.75;;;3.14;100.00
65897;BME280;52677;50.898;10.854;2023-12-20T03:29:50;98016.63;;;3.17;100.00
65897;BME280;52677;50.898;10.854;2023-12-20T03:31:50;98021.03;;;3.22;100.00
65897;BME280;52677;50.898;10.854;2023-12-20T03:33:50;98021.19;;;3.25;100.00
65897;BME280;52677;50.898;10.854;2023-12-20T03:35:52;98030.75;;;3.31;100.00
65897;BME280;52677;50.898;10.854;2023-12-20T03:37:52;98023.34;;;3.32;100.00
65897;BME280;52677;50.898;10.854;2023-12-20T03:39:53;98016.38;;;3.34;100.00
65897;BME280;52677;50.898;10.854;2023-12-20T03:41:53;98014.00;;;3.33;100.00
65897;BME280;52677;50.898;10.854;2023-12-20T03:43:53;98031.09;;;3.42;100.00
65897;BME280;52677;50.898;10.854;2023-12-20T03:45:54;98043.19;;;3.41;100.00
65897;BME280;52677;50.898;10.854;2023-12-20T03:47:54;98034.97;;;3.41;100.00
65897;BME280;52677;50.898;10.854;2023-12-20T03:49:56;98048.75;;;3.45;100.00
65897;BME280;52677;50.898;10.854;2023-12-20T03:51:56;98042.81;;;3.43;100.00
65897;BME280;52677;50.898;10.854;2023-12-20T03:53:57;98047.16;;;3.44;100.00
65897;BME280;52677;50.898;10.854;2023-12-20T03:55:57;98054.13;;;3.41;100.00
65897;BME280;52677;50.898;10.854;2023-12-20T03:57:57;98056.28;;;3.48;100.00
65897;BME280;52677;50.898;10.854;2023-12-20T03:59:57;98059.69;;;3.45;100.00
65897;BME280;52677;50.898;10.854;2023-12-20T04:01:58;98055.72;;;3.42;100.00
65897;BME280;52677;50.898;10.854;2023-12-20T04:03:58;98050.47;;;3.49;100.00
65897;BME280;52677;50.898;10.854;2023-12-20T04:05:58;98037.94;;;3.48;100.00
65897;BME280;52677;50.898;10.854;2023-12-20T04:08:00;98038.25;;;3.47;100.00
65897;BME280;52677;50.898;10.854;2023-12-20T04:10:02;98041.91;;;3.38;100.00
65897;BME280;52677;50.898;10.854;2023-12-20T04:12:04;98037.47;;;3.46;100.00
65897;BME280;52677;50.898;10.854;2023-12-20T04:14:05;98036.09;;;3.52;100.00
65897;BME280;52677;50.898;10.854;2023-12-20T04:16:07;98029.47;;;3.53;100.00
65897;BME280;52677;50.898;10.854;2023-12-20T04:18:07;98039.63;;;3.53;100.00
65897;BME280;52677;50.898;10.854;2023-12-20T04:20:08;98045.56;;;3.55;100.00
65897;BME280;52677;50.898;10.854;2023-12-20T04:22:08;98052.97;;;3.54;100.00
65897;BME280;52677;50.898;10.854;2023-12-20T04:24:09;98062.88;;;3.59;100.00
65897;BME280;52677;50.898;10.854;2023-12-20T04:26:10;98058.78;;;3.65;100.00
65897;BME280;52677;50.898;10.854;2023-12-20T04:28:10;98051.03;;;3.67;100.00
65897;BME280;52677;50.898;10.854;2023-12-20T04:30:11;98049.44;;;3.66;100.00
65897;BME280;52677;50.898;10.854;2023-12-20T04:32:11;98050.91;;;3.63;100.00
65897;BME280;52677;50.898;10.854;2023-12-20T04:34:12;98054.00;;;3.62;100.00
65897;BME280;52677;50.898;10.854;2023-12-20T04:36:12;98053.19;;;3.61;100.00
65897;BME280;52677;50.898;10.854;2023-12-20T04:38:12;98063.59;;;3.56;100.00
65897;BME280;52677;50.898;10.854;2023-12-20T04:40:13;98065.50;;;3.55;100.00
65897;BME280;52677;50.898;10.854;2023-12-20T04:42:13;98066.53;;;3.51;100.00
65897;BME280;52677;50.898;10.854;2023-12-20T04:44:13;98070.66;;;3.57;100.00
65897;BME280;52677;50.898;10.854;2023-12-20T04:46:14;98078.25;;;3.63;100.00
65897;BME280;52677;50.898;10.854;2023-12-20T04:48:14;98062.44;;;3.57;100.00
65897;BME280;52677;50.898;10.854;2023-12-20T04:50:14;98070.16;;;3.55;100.00
65897;BME280;52677;50.898;10.854;2023-12-20T04:52:15;98074.63;;;3.59;100.00
65897;BME280;52677;50.898;10.854;2023-12-20T04:54:15;98077.03;;;3.61;100.00
65897;BME280;52677;50.898;10.854;2023-12-20T04:56:16;98082.84;;;3.59;100.00
65897;BME280;52677;50.898;10.854;2023-12-20T04:58:16;98073.38;;;3.57;100.00
65897;BME280;52677;50.898;10.854;2023-12-20T05:00:16;98083.84;;;3.55;100.00
65897;BME280;52677;50.898;10.854;2023-12-20T05:02:17;98080.00;;;3.56;100.00
65897;BME280;52677;50.898;10.854;2023-12-20T05:04:17;98084.31;;;3.57;100.00
65897;BME280;52677;50.898;10.854;2023-12-20T05:06:17;98079.16;;;3.55;100.00
65897;BME280;52677;50.898;10.854;2023-12-20T05:08:18;98078.84;;;3.57;100.00
65897;BME280;52677;50.898;10.854;2023-12-20T05:10:18;98086.81;;;3.62;100.00
65897;BME280;52677;50.898;10.854;2023-12-20T05:12:19;98087.75;;;3.66;100.00
65897;BME280;52677;50.898;10.854;2023-12-20T05:14:19;98080.19;;;3.63;100.00
65897;BME280;52677;50.898;10.854;2023-12-20T05:16:19;98083.06;;;3.66;100.00
65897;BME280;52677;50.898;10.854;2023-12-20T05:18:21;98079.06;;;3.64;100.00
65897;BME280;52677;50.898;10.854;2023-12-20T05:20:21;98080.56;;;3.61;100.00
65897;BME280;52677;50.898;10.854;2023-12-20T05:22:21;98088.88;;;3.65;100.00
65897;BME280;52677;50.898;10.854;2023-12-20T05:24:22;98092.28;;;3.62;100.00
65897;BME280;52677;50.898;10.854;2023-12-20T05:26:22;98080.56;;;3.61;100.00
65897;BME280;52677;50.898;10.854;2023-12-20T05:28:22;98090.81;;;3.64;100.00
65897;BME280;52677;50.898;10.854;2023-12-20T05:30:23;98092.53;;;3.69;100.00
65897;BME280;52677;50.898;10.854;2023-12-20T05:32:23;98101.06;;;3.67;100.00
65897;BME280;52677;50.898;10.854;2023-12-20T05:34:24;98100.63;;;3.65;100.00
65897;BME280;52677;50.898;10.854;2023-12-20T05:36:24;98101.44;;;3.66;100.00
65897;BME280;52677;50.898;10.854;2023-12-20T05:38:24;98099.69;;;3.61;100.00
65897;BME280;52677;50.898;10.854;2023-12-20T05:40:24;98103.56;;;3.60;100.00
65897;BME280;52677;50.898;10.854;2023-12-20T05:42:25;98112.22;;;3.62;100.00
65897;BME280;52677;50.898;10.854;2023-12-20T05:44:25;98108.94;;;3.57;100.00
65897;BME280;52677;50.898;10.854;2023-12-20T05:46:26;98107.25;;;3.64;100.00
65897;BME280;52677;50.898;10.854;2023-12-20T05:48:26;98109.38;;;3.71;100.00
65897;BME280;52677;50.898;10.854;2023-12-20T05:50:27;98108.16;;;3.81;100.00
65897;BME280;52677;50.898;10.854;2023-12-20T05:52:27;98112.03;;;3.92;100.00
65897;BME280;52677;50.898;10.854;2023-12-20T05:54:28;98099.81;;;3.89;100.00
65897;BME280;52677;50.898;10.854;2023-12-20T05:56:28;98107.34;;;3.92;100.00
65897;BME280;52677;50.898;10.854;2023-12-20T05:58:28;98101.41;;;3.90;100.00
65897;BME280;52677;50.898;10.854;2023-12-20T06:00:29;98108.34;;;3.88;100.00
65897;BME280;52677;50.898;10.854;2023-12-20T06:02:29;98121.94;;;3.84;100.00
65897;BME280;52677;50.898;10.854;2023-12-20T06:04:30;98118.63;;;3.79;100.00
65897;BME280;52677;50.898;10.854;2023-12-20T06:06:30;98136.53;;;3.88;100.00
65897;BME280;52677;50.898;10.854;2023-12-20T06:08:31;98125.25;;;3.90;100.00
65897;BME280;52677;50.898;10.854;2023-12-20T06:10:31;98129.47;;;3.87;100.00
65897;BME280;52677;50.898;10.854;2023-12-20T06:12:31;98138.47;;;3.88;100.00
65897;BME280;52677;50.898;10.854;2023-12-20T06:14:33;98131.41;;;3.87;100.00
65897;BME280;52677;50.898;10.854;2023-12-20T06:16:34;98137.00;;;3.90;100.00
65897;BME280;52677;50.898;10.854;2023-12-20T06:18:35;98139.38;;;3.92;100.00
65897;BME280;52677;50.898;10.854;2023-12-20T06:20:36;98129.00;;;3.85;100.00
65897;BME280;52677;50.898;10.854;2023-12-20T06:22:37;98126.28;;;3.73;100.00
65897;BME280;52677;50.898;10.854;2023-12-20T06:24:37;98124.34;;;3.74;100.00
65897;BME280;52677;50.898;10.854;2023-12-20T06:26:37;98129.81;;;3.74;100.00
65897;BME280;52677;50.898;10.854;2023-12-20T06:28:38;98135.25;;;3.61;100.00
65897;BME280;52677;50.898;10.854;2023-12-20T06:30:38;98129.78;;;3.61;100.00
65897;BME280;52677;50.898;10.854;2023-12-20T06:32:38;98126.50;;;3.56;100.00
65897;BME280;52677;50.898;10.854;2023-12-20T06:34:39;98116.91;;;3.50;100.00
65897;BME280;52677;50.898;10.854;2023-12-20T06:36:39;98123.63;;;3.52;100.00
65897;BME280;52677;50.898;10.854;2023-12-20T06:38:40;98132.53;;;3.49;100.00
65897;BME280;52677;50.898;10.854;2023-12-20T06:40:42;98124.97;;;3.46;100.00
65897;BME280;52677;50.898;10.854;2023-12-20T06:42:43;98126.38;;;3.40;100.00
65897;BME280;52677;50.898;10.854;2023-12-20T06:44:44;98129.66;;;3.33;100.00
65897;BME280;52677;50.898;10.854;2023-12-20T06:46:44;98134.19;;;3.29;100.00
65897;BME280;52677;50.898;10.854;2023-12-20T06:48:44;98122.44;;;3.29;100.00
65897;BME280;52677;50.898;10.854;2023-12-20T06:50:45;98124.72;;;3.27;100.00
65897;BME280;52677;50.898;10.854;2023-12-20T06:52:45;98130.75;;;3.20;100.00
65897;BME280;52677;50.898;10.854;2023-12-20T06:54:45;98143.63;;;3.20;100.00
65897;BME280;52677;50.898;10.854;2023-12-20T06:56:46;98135.97;;;3.13;100.00
65897;BME280;52677;50.898;10.854;2023-12-20T06:58:46;98148.38;;;3.10;100.00
65897;BME280;52677;50.898;10.854;2023-12-20T07:00:46;98145.97;;;3.09;100.00
65897;BME280;52677;50.898;10.854;2023-12-20T07:02:47;98138.44;;;3.06;100.00
65897;BME280;52677;50.898;10.854;2023-12-20T07:04:47;98123.75;;;2.98;100.00
65897;BME280;52677;50.898;10.854;2023-12-20T07:06:48;98133.84;;;2.98;100.00
65897;BME280;52677;50.898;10.854;2023-12-20T07:08:52;98129.66;;;3.00;100.00
65897;BME280;52677;50.898;10.854;2023-12-20T07:10:52;98129.66;;;3.00;100.00
65897;BME280;52677;50.898;10.854;2023-12-20T07:12:52;98129.22;;;2.98;100.00
65897;BME280;52677;50.898;10.854;2023-12-20T07:14:55;98132.41;;;3.00;100.00
65897;BME280;52677;50.898;10.854;2023-12-20T07:16:56;98131.47;;;2.96;100.00
65897;BME280;52677;50.898;10.854;2023-12-20T07:18:57;98142.34;;;2.84;100.00
65897;BME280;52677;50.898;10.854;2023-12-20T07:20:57;98138.94;;;2.87;100.00
65897;BME280;52677;50.898;10.854;2023-12-20T07:22:57;98146.94;;;2.92;100.00
65897;BME280;52677;50.898;10.854;2023-12-20T07:24:58;98142.47;;;2.88;100.00
65897;BME280;52677;50.898;10.854;2023-12-20T07:26:59;98141.13;;;2.94;100.00
65897;BME280;52677;50.898;10.854;2023-12-20T07:29:00;98149.53;;;2.89;100.00
65897;BME280;52677;50.898;10.854;2023-12-20T07:31:00;98138.94;;;2.87;100.00
65897;BME280;52677;50.898;10.854;2023-12-20T07:33:01;98151.97;;;2.90;100.00
65897;BME280;52677;50.898;10.854;2023-12-20T07:35:02;98151.06;;;2.98;100.00
65897;BME280;52677;50.898;10.854;2023-12-20T07:37:03;98147.41;;;2.94;100.00
65897;BME280;52677;50.898;10.854;2023-12-20T07:39:04;98146.59;;;2.94;100.00
65897;BME280;52677;50.898;10.854;2023-12-20T07:41:04;98148.00;;;3.00;100.00
65897;BME280;52677;50.898;10.854;2023-12-20T07:43:05;98152.34;;;3.01;100.00
65897;BME280;52677;50.898;10.854;2023-12-20T07:45:05;98149.78;;;2.96;100.00
65897;BME280;52677;50.898;10.854;2023-12-20T07:47:06;98154.00;;;2.93;100.00
65897;BME280;52677;50.898;10.854;2023-12-20T07:49:06;98140.81;;;2.95;100.00
65897;BME280;52677;50.898;10.854;2023-12-20T07:51:06;98152.19;;;2.97;100.00
65897;BME280;52677;50.898;10.854;2023-12-20T07:53:08;98145.13;;;2.96;100.00
65897;BME280;52677;50.898;10.854;2023-12-20T07:55:08;98146.53;;;3.02;100.00
65897;BME280;52677;50.898;10.854;2023-12-20T07:57:10;98144.03;;;3.09;100.00
65897;BME280;52677;50.898;10.854;2023-12-20T07:59:10;98142.56;;;3.12;100.00
65897;BME280;52677;50.898;10.854;2023-12-20T08:01:11;98143.50;;;3.16;100.00
65897;BME280;52677;50.898;10.854;2023-12-20T08:03:12;98138.59;;;3.22;100.00
65897;BME280;52677;50.898;10.854;2023-12-20T08:05:12;98143.06;;;3.26;100.00
65897;BME280;52677;50.898;10.854;2023-12-20T08:07:13;98131.69;;;3.36;100.00
65897;BME280;52677;50.898;10.854;2023-12-20T08:09:14;98132.28;;;3.42;100.00
65897;BME280;52677;50.898;10.854;2023-12-20T08:11:15;98144.03;;;3.43;100.00
65897;BME280;52677;50.898;10.854;2023-12-20T08:13:15;98153.03;;;3.55;100.00
65897;BME280;52677;50.898;10.854;2023-12-20T08:15:16;98151.34;;;3.63;100.00
65897;BME280;52677;50.898;10.854;2023-12-20T08:17:16;98161.03;;;3.60;100.00
65897;BME280;52677;50.898;10.854;2023-12-20T08:19:18;98162.31;;;3.75;100.00
65897;BME280;52677;50.898;10.854;2023-12-20T08:21:18;98168.00;;;3.82;100.00
65897;BME280;52677;50.898;10.854;2023-12-20T08:23:20;98163.91;;;3.88;100.00
65897;BME280;52677;50.898;10.854;2023-12-20T08:25:21;98179.31;;;3.81;100.00
65897;BME280;52677;50.898;10.854;2023-12-20T08:27:21;98175.44;;;3.82;100.00
65897;BME280;52677;50.898;10.854;2023-12-20T08:29:21;98174.50;;;3.78;100.00
65897;BME280;52677;50.898;10.854;2023-12-20T08:31:22;98165.72;;;3.84;100.00
65897;BME280;52677;50.898;10.854;2023-12-20T08:33:22;98170.50;;;3.87;100.00
65897;BME280;52677;50.898;10.854;2023-12-20T08:35:22;98180.00;;;3.90;100.00
65897;BME280;52677;50.898;10.854;2023-12-20T08:37:24;98183.53;;;3.90;100.00
65897;BME280;52677;50.898;10.854;2023-12-20T08:39:24;98172.09;;;3.88;100.00
65897;BME280;52677;50.898;10.854;2023-12-20T08:41:24;98174.03;;;3.88;100.00
65897;BME280;52677;50.898;10.854;2023-12-20T08:43:25;98177.56;;;3.88;100.00
65897;BME280;52677;50.898;10.854;2023-12-20T08:45:25;98168.56;;;3.88;100.00
65897;BME280;52677;50.898;10.854;2023-12-20T08:47:25;98157.19;;;3.86;100.00
65897;BME280;52677;50.898;10.854;2023-12-20T08:49:26;98161.84;;;3.85;100.00
65897;BME280;52677;50.898;10.854;2023-12-20T08:51:26;98175.88;;;3.84;100.00
65897;BME280;52677;50.898;10.854;2023-12-20T08:53:26;98192.09;;;3.89;100.00
65897;BME280;52677;50.898;10.854;2023-12-20T08:55:27;98192.53;;;3.91;100.00
65897;BME280;52677;50.898;10.854;2023-12-20T08:57:29;98205.53;;;3.94;100.00
65897;BME280;52677;50.898;10.854;2023-12-20T08:59:29;98206.78;;;3.97;100.00
65897;BME280;52677;50.898;10.854;2023-12-20T09:01:30;98214.78;;;4.02;100.00
65897;BME280;52677;50.898;10.854;2023-12-20T09:03:30;98209.88;;;4.07;100.00
65897;BME280;52677;50.898;10.854;2023-12-20T09:05:30;98210.78;;;4.11;100.00
65897;BME280;52677;50.898;10.854;2023-12-20T09:07:31;98210.44;;;4.13;100.00
65897;BME280;52677;50.898;10.854;2023-12-20T09:09:32;98209.44;;;4.17;100.00
65897;BME280;52677;50.898;10.854;2023-12-20T09:11:32;98213.41;;;4.20;100.00
65897;BME280;52677;50.898;10.854;2023-12-20T09:13:32;98204.84;;;4.21;100.00
65897;BME280;52677;50.898;10.854;2023-12-20T09:15:33;98204.63;;;4.27;100.00
65897;BME280;52677;50.898;10.854;2023-12-20T09:17:34;98207.94;;;4.20;100.00
65897;BME280;52677;50.898;10.854;2023-12-20T09:19:34;98196.97;;;4.20;100.00
65897;BME280;52677;50.898;10.854;2023-12-20T09:21:34;98196.63;;;4.21;100.00
65897;BME280;52677;50.898;10.854;2023-12-20T09:23:35;98210.47;;;4.25;100.00
65897;BME280;52677;50.898;10.854;2023-12-20T09:25:36;98201.91;;;4.27;100.00
65897;BME280;52677;50.898;10.854;2023-12-20T09:27:37;98209.41;;;4.30;100.00
65897;BME280;52677;50.898;10.854;2023-12-20T09:29:37;98206.13;;;4.24;100.00
65897;BME280;52677;50.898;10.854;2023-12-20T09:31:38;98201.44;;;4.25;100.00
65897;BME280;52677;50.898;10.854;2023-12-20T09:33:38;98213.28;;;4.29;100.00
65897;BME280;52677;50.898;10.854;2023-12-20T09:35:38;98192.31;;;4.33;100.00
65897;BME280;52677;50.898;10.854;2023-12-20T09:37:39;98192.19;;;4.29;100.00
65897;BME280;52677;50.898;10.854;2023-12-20T09:39:41;98194.59;;;4.31;100.00
65897;BME280;52677;50.898;10.854;2023-12-20T09:41:45;98192.66;;;4.31;100.00
65897;BME280;52677;50.898;10.854;2023-12-20T09:43:50;98178.63;;;4.33;100.00
65897;BME280;52677;50.898;10.854;2023-12-20T09:45:53;98183.41;;;4.36;100.00
65897;BME280;52677;50.898;10.854;2023-12-20T09:47:54;98166.50;;;4.34;100.00
65897;BME280;52677;50.898;10.854;2023-12-20T09:49:57;98177.91;;;4.36;100.00
65897;BME280;52677;50.898;10.854;2023-12-20T09:51:57;98171.53;;;4.32;100.00
65897;BME280;52677;50.898;10.854;2023-12-20T09:53:58;98171.78;;;4.39;100.00
65897;BME280;52677;50.898;10.854;2023-12-20T09:55:59;98166.63;;;4.37;100.00
65897;BME280;52677;50.898;10.854;2023-12-20T09:58:00;98165.47;;;4.38;100.00
65897;BME280;52677;50.898;10.854;2023-12-20T10:00:01;98170.28;;;4.41;100.00
65897;BME280;52677;50.898;10.854;2023-12-20T10:02:01;98162.50;;;4.43;100.00
65897;BME280;52677;50.898;10.854;2023-12-20T10:04:08;98165.59;;;4.42;100.00
65897;BME280;52677;50.898;10.854;2023-12-20T10:06:09;98166.34;;;4.55;100.00
65897;BME280;52677;50.898;10.854;2023-12-20T10:08:10;98170.00;;;4.59;100.00
65897;BME280;52677;50.898;10.854;2023-12-20T10:10:12;98159.16;;;4.62;100.00
65897;BME280;52677;50.898;10.854;2023-12-20T10:12:13;98149.25;;;4.58;100.00
65897;BME280;52677;50.898;10.854;2023-12-20T10:14:13;98164.09;;;4.57;100.00
65897;BME280;52677;50.898;10.854;2023-12-20T10:16:14;98150.75;;;4.55;100.00
65897;BME280;52677;50.898;10.854;2023-12-20T10:18:15;98157.81;;;4.56;100.00
65897;BME280;52677;50.898;10.854;2023-12-20T10:20:16;98146.59;;;4.61;100.00
65897;BME280;52677;50.898;10.854;2023-12-20T10:22:16;98152.06;;;4.61;100.00
65897;BME280;52677;50.898;10.854;2023-12-20T10:24:17;98151.63;;;4.59;100.00
65897;BME280;52677;50.898;10.854;2023-12-20T10:26:25;98158.00;;;4.63;100.00
65897;BME280;52677;50.898;10.854;2023-12-20T10:28:26;98148.44;;;4.57;100.00
65897;BME280;52677;50.898;10.854;2023-12-20T10:30:28;98136.22;;;4.55;100.00